Tres Fronteiras, Brazil
Current Conditions -  °F | °C
As of 9:00 PM on Friday 24 Oct 2014 (Local Time) from SBAU Reporting Station
Rain Showers Rain Showers  
Wind Chill: 81°   Ceiling: Unl
Heat Index: 82°   Visibility: 6mi
Dew Point: 64°   Wind: 5mph
Humidity: 58%   Direction: 200°SSW
Pressure: 29.91"   Gusts: NA
Location:  20.24°S, 50.89°W
Report Text: SBAU 242300Z 20004KT 9999 VCSH FEW040TCU SCT100 27/18 Q1013 RETS
Loading
Personal Weather Stations






























Interactive Weather Map
Tropical Storm Tracking
New forecast layout! Learn more

10-Day Weather Forecast

Advertisements
Track Severe Weather on mobile